Biola, California
Current Conditions -  °F | °C
As of 11:53 AM on Saturday 25 Oct 2014 (Local Time) from KMAE Reporting Station
Clear Clear  
Wind Chill: 23°   Ceiling: Unl
Heat Index: 23°   Visibility: 10mi
Dew Point:   Wind: 9mph
Humidity: 35%   Direction: 190°S
Pressure: 30.06"   Gusts: NA
Location:  36.8°N, 120.02°W
Report Text: KMAE 251853Z AUTO 19008KT 10SM CLR 23/07 A3006 RMK AO2 SLP176 T02330072
Loading
Personal Weather Stations






























Interactive Weather Map
Tropical Storm Tracking
New forecast layout! Learn more

10-Day Weather Forecast

Advertisements
Track Severe Weather on mobile